Flight Track Log - Related Links

Times and Time Zones

All times are in EDT time to prevent confusion due to time zone crossing. See the DAL268 flight status page for this flight to view local times or setup timezone preferences in your user account.

Time Position Orientation Groundspeed Altitude Reporting Facility
EDT Latitude Longitude Course Direction KTS MPH feet Rate Location/Type
Sun 14:34:56 37.6130 -122.3770 58° Northeast 110 127  Level FlightAware ADS-B
Sun 14:35:12 37.6230 -122.3700 29° Northeast 161 185 200 1,556 Climbing FlightAware ADS-B
Sun 14:35:23 37.6299 -122.3650 30° Northeast 161 185 700 2,700 Climbing FlightAware ADS-B
Sun 14:35:32 37.6360 -122.3600 33° Northeast 165 190 1,100 2,308 Climbing FlightAware ADS-B
Sun 14:35:36 37.6383 -122.3570 46° Northeast 165 190 1,200 2,250 Climbing FlightAware ADS-B
Sun 14:35:40 37.6402 -122.3550 40° Northeast 166 191 1,400 2,667 Climbing FlightAware ADS-B
Sun 14:35:45 37.6428 -122.3510 51° Northeast 167 192 1,600 1,500 Climbing FlightAware ADS-B
Sun 14:35:56 37.6483 -122.3420 52° Northeast 179 206 1,800 1,500 Climbing FlightAware ADS-B
Sun 14:36:09 37.6557 -122.3320 47° Northeast 193 222 2,200 1,500 Climbing FlightAware ADS-B
Sun 14:36:24 37.6656 -122.3180 48° Northeast 214 246 2,500 1,355 Climbing FlightAware ADS-B
Sun 14:36:40 37.6766 -122.3030 47° Northeast 230 265 2,900 1,455 Climbing FlightAware ADS-B
Sun 14:36:57 37.6897 -122.2840 49° Northeast 249 287 3,300 1,833 Climbing FlightAware ADS-B
Sun 14:37:16 37.7048 -122.2640 46° Northeast 264 304 4,000 2,595 Climbing FlightAware ADS-B
Sun 14:37:34 37.7203 -122.2420 48° Northeast 266 306 4,900 2,824 Climbing FlightAware ADS-B
Sun 14:37:50 37.7338 -122.2240 47° Northeast 268 308 5,600 2,400 Climbing FlightAware ADS-B
Sun 14:38:09 37.7501 -122.2020 47° Northeast 277 319 6,300 2,372 Climbing FlightAware ADS-B
Sun 14:38:33 37.7732 -122.1740 44° Northeast 289 333 7,300 2,550 Climbing FlightAware ADS-B
Sun 14:38:49 37.7909 -122.1570 37° Northeast 291 335 8,000 2,625 Climbing FlightAware ADS-B
Sun 14:39:05 37.8082 -122.1410 36° Northeast 295 339 8,700 2,625 Climbing FlightAware ADS-B
Sun 14:39:21 37.8256 -122.1250 36° Northeast 298 343 9,400 2,400 Climbing FlightAware ADS-B
Sun 14:39:30 37.8355 -122.1160 36° Northeast 299 344 9,700 2,471 Climbing FlightAware ADS-B
Sun 14:39:38 37.8440 -122.1070 40° Northeast 300 345 10,100 2,400 Climbing FlightAware ADS-B
Sun 14:39:45 37.8516 -122.0970 46° Northeast 303 349 10,300 2,118 Climbing FlightAware ADS-B
Sun 14:39:55 37.8592 -122.0830 55° Northeast 304 350 10,700 2,571 Climbing FlightAware ADS-B
Sun 14:39:59 37.8623 -122.0760 61° Northeast 305 351 10,900 2,857 Climbing FlightAware ADS-B
Sun 14:40:16 37.8735 -122.0490 62° Northeast 305 351 11,700 2,769 Climbing FlightAware ADS-B
Sun 14:40:38 37.8866 -122.0150 64° Northeast 301 346 12,700 1,889 Climbing FlightAware ADS-B
Sun 14:41:10 37.9054 -121.9620 66° East 327 376 13,400 1,161 Climbing FlightAware ADS-B
Sun 14:41:40 37.9248 -121.9060 66° East 353 406 13,900 1,067 Climbing FlightAware ADS-B
Sun 14:41:55 37.9353 -121.8770 65° Northeast 365 420 14,200 1,105 Climbing FlightAware ADS-B
Sun 14:42:18 37.9554 -121.8350 59° Northeast 381 438 14,600 1,527 Climbing FlightAware ADS-B
Sun 14:42:50 37.9890 -121.7760 54° Northeast 389 448 15,600 2,029 Climbing FlightAware ADS-B
Sun 14:43:26 38.0270 -121.7100 54° Northeast 392 451 16,900 2,057 Climbing FlightAware ADS-B
Sun 14:44:00 38.0640 -121.6450 54° Northeast 396 456 18,000 1,941 Climbing FlightAware ADS-B
Sun 14:44:34 38.0980 -121.5800 56° Northeast 399 459 19,100 1,781 Climbing FlightAware ADS-B
Sun 14:45:04 38.1205 -121.5150 66° East 407 468 19,900 1,600 Climbing FlightAware ADS-B
Sun 14:45:34 38.1427 -121.4460 68° East 414 476 20,700 1,574 Climbing FlightAware ADS-B
Sun 14:46:05 38.1654 -121.3770 67° East 419 482 21,500 1,742 Climbing FlightAware ADS-B
Sun 14:46:36 38.1883 -121.3060 68° East 418 481 22,500 1,810 Climbing FlightAware ADS-B
Sun 14:47:08 38.2117 -121.2330 68° East 419 482 23,400 1,478 Climbing FlightAware ADS-B
Sun 14:47:45 38.2417 -121.1500 65° Northeast 424 488 24,200 1,347 Climbing FlightAware ADS-B
Sun 14:47:57 38.2535 -121.1260 58° Northeast 423 487 24,500 1,309 Climbing FlightAware ADS-B
Sun 14:48:40 38.2990 -121.0350 57° Northeast 431 496 25,400 1,259 Climbing FlightAware ADS-B
Sun 14:49:18 38.3380 -120.9520 59° Northeast 438 504 26,200 1,216 Climbing FlightAware ADS-B
Sun 14:49:54 38.3740 -120.8730 60° Northeast 443 510 26,900 1,254 Climbing FlightAware ADS-B
Sun 14:50:25 38.4070 -120.8010 60° Northeast 447 514 27,600 1,182 Climbing FlightAware ADS-B
Sun 14:51:00 38.4450 -120.7190 59° Northeast 452 520 28,200 1,099 Climbing FlightAware ADS-B
Sun 14:51:36 38.4820 -120.6370 60° Northeast 455 524 28,900 1,417 Climbing FlightAware ADS-B
Sun 14:52:12 38.5200 -120.5540 60° Northeast 451 519 29,900 1,500 Climbing FlightAware ADS-B
Sun 14:52:48 38.5590 -120.4740 58° Northeast 449 517 30,700 1,333 Climbing FlightAware ADS-B
Sun 14:53:24 38.5980 -120.3900 59° Northeast 448 516 31,500 1,324 Climbing FlightAware ADS-B
Sun 14:53:56 38.6320 -120.3180 59° Northeast 447 514 32,200 1,324 Climbing FlightAware ADS-B
Sun 14:54:32 38.6690 -120.2380 59° Northeast 443 510 33,000 1,250 Climbing FlightAware ADS-B
Sun 14:55:08 38.7060 -120.1590 59° Northeast 441 507 33,700 1,200 Climbing FlightAware ADS-B
Sun 14:55:37 38.7360 -120.0940 59° Northeast 440 506 34,300 971 Climbing FlightAware ADS-B
Sun 14:56:16 38.7770 -120.0050 59° Northeast 444 511 34,800 800 Climbing FlightAware ADS-B
Sun 14:56:52 38.8150 -119.9230 59° Northeast 446 513 35,300 857 Climbing FlightAware ADS-B
Sun 14:57:26 38.8520 -119.8430 59° Northeast 446 513 35,800 917 Climbing FlightAware ADS-B
Sun 14:58:04 38.8910 -119.7570 60° Northeast 445 512 36,400 857 Climbing FlightAware ADS-B
Sun 14:58:43 38.9310 -119.6710 59° Northeast 445 512 36,900 468 Climbing FlightAware ADS-B
Sun 14:59:21 38.9710 -119.5840 59° Northeast 445 512 37,000 87 Climbing FlightAware ADS-B
Sun 14:59:52 39.0030 -119.5130 60° Northeast 446 513 37,000  Level FlightAware ADS-B
Sun 15:00:28 39.0410 -119.4300 59° Northeast 449 517 37,000  Level FlightAware ADS-B
Sun 15:01:04 39.0790 -119.3460 60° Northeast 449 517 37,000  Level FlightAware ADS-B
Sun 15:01:40 39.1160 -119.2650 59° Northeast 449 517 37,000  Level FlightAware ADS-B
Sun 15:02:14 39.1520 -119.1850 60° Northeast 450 518 37,000  Level FlightAware ADS-B
Sun 15:02:50 39.1890 -119.1020 60° Northeast 451 519 37,000  Level FlightAware ADS-B
Sun 15:03:26 39.2280 -119.0160 60° Northeast 453 521 37,000  Level FlightAware ADS-B
Sun 15:03:58 39.2600 -118.9440 60° Northeast 454 522 37,000  Level FlightAware ADS-B
Sun 15:04:32 39.2960 -118.8630 60° Northeast 455 524 37,000  Level FlightAware ADS-B
Sun 15:05:10 39.3370 -118.7730 59° Northeast 457 526 37,000  Level FlightAware ADS-B
Sun 15:05:44 39.3720 -118.6930 60° Northeast 459 528 37,000  Level FlightAware ADS-B
Sun 15:06:20 39.4100 -118.6070 60° Northeast 461 531 37,000  Level FlightAware ADS-B
Sun 15:06:52 39.4440 -118.5310 60° Northeast 462 532 37,000  Level FlightAware ADS-B
Sun 15:07:30 39.4840 -118.4390 61° Northeast 464 534 37,000  Level FlightAware ADS-B
Sun 15:08:02 39.5170 -118.3630 61° Northeast 464 534 37,000  Level FlightAware ADS-B
Sun 15:08:40 39.5590 -118.2690 60° Northeast 466 536 37,000  Level FlightAware ADS-B
Sun 15:09:12 39.5930 -118.1910 60° Northeast 467 537 37,000  Level FlightAware ADS-B
Sun 15:09:48 39.6310 -118.1040 60° Northeast 468 539 37,000  Level FlightAware ADS-B
Sun 15:10:24 39.6700 -118.0150 60° Northeast 469 540 37,000  Level FlightAware ADS-B
Sun 15:10:56 39.7030 -117.9380 61° Northeast 470 541 37,000  Level FlightAware ADS-B
Sun 15:11:45 39.7550 -117.8180 61° Northeast 471 542 37,000  Level FlightAware ADS-B
Sun 15:12:21 39.7940 -117.7280 61° Northeast 473 544 37,000  Level FlightAware ADS-B
Sun 15:12:57 39.8330 -117.6380 61° Northeast 473 544 37,000  Level FlightAware ADS-B
Sun 15:13:31 39.8680 -117.5540 61° Northeast 474 545 37,000  Level FlightAware ADS-B
Sun 15:14:05 39.9050 -117.4690 60° Northeast 475 547 37,000  Level FlightAware ADS-B
Sun 15:14:41 39.9430 -117.3790 61° Northeast 478 550 37,000  Level FlightAware ADS-B
Sun 15:15:23 39.9830 -117.2850 61° Northeast 478 550 37,000  Level FlightAware ADS-B
Sun 15:15:59 40.0160 -117.2080 61° Northeast 478 550 37,000  Level FlightAware ADS-B
Sun 15:16:35 40.0480 -117.1310 61° Northeast 478 550 37,000  Level FlightAware ADS-B
Sun 15:17:11 40.0810 -117.0530 61° Northeast 478 550 37,000  Level FlightAware ADS-B
Sun 15:17:47 40.1140 -116.9760 61° Northeast 478 550 37,000  Level FlightAware ADS-B
Sun 15:18:24 40.1480 -116.8960 61° Northeast 478 550 37,000  Level FlightAware ADS-B
Sun 15:19:01 40.1810 -116.8170 61° Northeast 478 550 37,000  Level FlightAware ADS-B
Sun 15:19:37 40.2140 -116.7390 61° Northeast 478 550 37,000  Level FlightAware ADS-B
Sun 15:20:25 40.2580 -116.6360 61° Northeast 478 550 37,000  Level FlightAware ADS-B
Sun 15:21:01 40.2910 -116.5580 61° Northeast 478 550 37,000  Level FlightAware ADS-B
Sun 15:21:37 40.3240 -116.4810 61° Northeast 478 550 37,000  Level FlightAware ADS-B
Sun 15:22:18 40.4302 -116.2120 63° Northeast 490 564 37,000  Level FlightAware ADS-B
Sun 15:22:49 40.4644 -116.1280 62° Northeast 492 566 37,000  Level FlightAware ADS-B
Sun 15:23:19 40.4972 -116.0480 62° Northeast 493 567 37,000  Level FlightAware ADS-B
Sun 15:23:49 40.5293 -115.9680 62° Northeast 494 568 37,000  Level FlightAware ADS-B
Sun 15:24:21 40.5620 -115.8880 62° Northeast 495 570 37,000  Level FlightAware ADS-B
Sun 15:25:01 40.6065 -115.7780 62° Northeast 496 571 37,000  Level FlightAware ADS-B
Sun 15:26:00 40.6698 -115.6200 62° Northeast 497 572 37,000  Level FlightAware ADS-B
Sun 15:26:46 40.7189 -115.4980 62° Northeast 498 573 37,000  Level FlightAware ADS-B
Sun 15:27:16 40.7514 -115.4170 62° Northeast 499 574 37,000  Level FlightAware ADS-B
Sun 15:27:47 40.7847 -115.3330 62° Northeast 499 574 37,000  Level FlightAware ADS-B
Sun 15:28:18 40.8170 -115.2510 62° Northeast 499 574 37,000  Level FlightAware ADS-B
Sun 15:28:49 40.8503 -115.1670 62° Northeast 499 574 37,000  Level FlightAware ADS-B
Sun 15:29:20 40.8801 -115.0920 62° Northeast 499 574 37,000  Level FlightAware ADS-B
Sun 15:29:51 40.9148 -115.0040 62° Northeast 498 573 37,000  Level FlightAware ADS-B
Sun 15:31:21 41.0107 -114.7590 63° Northeast 496 571 37,000  Level FlightAware ADS-B
Sun 15:31:51 41.0425 -114.6770 63° Northeast 496 571 37,000  Level FlightAware ADS-B
Sun 15:32:22 41.0749 -114.5930 63° Northeast 494 568 37,000  Level FlightAware ADS-B
Sun 15:32:53 41.1061 -114.5130 63° Northeast 494 568 37,000  Level FlightAware ADS-B
Sun 15:33:23 41.1374 -114.4310 63° Northeast 494 568 37,000  Level FlightAware ADS-B
Sun 15:33:55 41.1721 -114.3420 63° Northeast 494 568 37,000  Level FlightAware ADS-B
Sun 15:34:29 41.2060 -114.2530 63° Northeast 493 567 37,000  Level FlightAware ADS-B
Sun 15:35:04 41.2425 -114.1570 63° Northeast 493 567 37,000  Level FlightAware ADS-B
Sun 15:35:34 41.2738 -114.0760 63° Northeast 493 567 37,000  Level FlightAware ADS-B
Sun 15:36:05 41.3051 -113.9930 63° Northeast 493 567 37,000  Level FlightAware ADS-B
Sun 15:36:35 41.3363 -113.9110 63° Northeast 492 566 37,000  Level FlightAware ADS-B
Sun 15:36:49 41.3486 -113.8740 66° East 491 565 37,000  Level FlightAware ADS-B
Sun 15:37:03 41.3594 -113.8340 70° East 489 563 37,000  Level FlightAware ADS-B
Sun 15:37:16 41.3669 -113.7950 76° East 486 559 37,000  Level FlightAware ADS-B
Sun 15:37:36 41.3739 -113.7380 81° East 485 558 37,000  Level FlightAware ADS-B
Sun 15:37:56 41.3775 -113.6770 85° East 483 556 37,000  Level FlightAware ADS-B
Sun 15:38:27 41.3808 -113.5880 87° East 483 556 37,000  Level FlightAware ADS-B
Sun 15:38:57 41.3849 -113.5000 86° East 483 556 37,000  Level FlightAware ADS-B
Sun 15:39:27 41.3902 -113.4110 85° East 485 558 37,000  Level FlightAware ADS-B
Sun 15:39:58 41.3962 -113.3170 85° East 485 558 37,000  Level FlightAware ADS-B
Sun 15:40:29 41.4024 -113.2250 85° East 486 559 37,000  Level FlightAware ADS-B
Sun 15:40:59 41.4082 -113.1370 85° East 487 560 37,000  Level FlightAware ADS-B
Sun 15:41:30 41.4142 -113.0460 85° East 487 560 37,000  Level FlightAware ADS-B
Sun 15:42:00 41.4199 -112.9540 85° East 487 560 37,000  Level FlightAware ADS-B
Sun 15:42:38 41.4266 -112.8450 85° East 488 562 37,000  Level FlightAware ADS-B
Sun 15:43:08 41.4320 -112.7540 85° East 487 560 37,000  Level FlightAware ADS-B
Sun 15:43:47 41.4388 -112.6370 86° East 488 562 37,000  Level FlightAware ADS-B
Sun 15:44:19 41.4444 -112.5390 86° East 489 563 37,000  Level FlightAware ADS-B
Sun 15:44:50 41.4498 -112.4450 86° East 489 563 37,000  Level FlightAware ADS-B
Sun 15:45:21 41.4548 -112.3540 86° East 489 563 37,000  Level FlightAware ADS-B
Sun 15:45:51 41.4597 -112.2630 86° East 489 563 37,000  Level FlightAware ADS-B
Sun 15:46:23 41.4649 -112.1680 86° East 488 562 37,000  Level FlightAware ADS-B
Sun 15:46:55 41.4699 -112.0730 86° East 488 562 37,000  Level FlightAware ADS-B
Sun 15:47:26 41.4746 -111.9820 86° East 487 560 37,000  Level FlightAware ADS-B
Sun 15:48:00 41.4797 -111.8850 86° East 487 560 37,000  Level FlightAware ADS-B
Sun 15:48:30 41.4842 -111.7940 86° East 486 559 37,000  Level FlightAware ADS-B
Sun 15:49:01 41.4888 -111.7050 86° East 486 559 37,000  Level FlightAware ADS-B
Sun 15:49:31 41.4932 -111.6130 86° East 486 559 37,000  Level FlightAware ADS-B
Sun 15:50:02 41.4976 -111.5230 86° East 486 559 37,000  Level FlightAware ADS-B
Sun 15:50:32 41.5019 -111.4320 86° East 485 558 37,000  Level FlightAware ADS-B
Sun 15:51:02 41.5060 -111.3430 86° East 486 559 37,000  Level FlightAware ADS-B
Sun 15:51:32 41.5102 -111.2530 86° East 485 558 37,000  Level FlightAware ADS-B
Sun 15:52:03 41.5142 -111.1640 87° East 484 557 37,000  Level FlightAware ADS-B
Sun 15:52:35 41.5171 -111.0990 87° East 484 557 37,000  Level FlightAware ADS-B
Sun 15:52:51 41.5184 -111.0700 87° East 483 556 37,000  Level FlightAware ADS-B
Sun 15:53:22 41.5247 -110.9250 87° East 482 555 37,000  Level FlightAware ADS-B
Sun 15:53:52 41.5284 -110.8360 87° East 481 554 37,000  Level FlightAware ADS-B
Sun 15:54:22 41.5321 -110.7480 87° East 480 552 37,000  Level FlightAware ADS-B
Sun 15:55:10 41.5380 -110.5990 87° East 479 551 37,000  Level FlightAware ADS-B
Sun 15:55:46 41.5420 -110.4930 87° East 479 551 37,000  Level FlightAware ADS-B
Sun 15:56:20 41.5460 -110.3940 87° East 480 552 37,000  Level FlightAware ADS-B
Sun 15:56:56 41.5500 -110.2860 87° East 480 552 37,000  Level FlightAware ADS-B
Sun 15:57:30 41.5540 -110.1890 87° East 480 552 37,000  Level FlightAware ADS-B
Sun 15:58:06 41.5570 -110.0960 88° East 480 552 37,000  Level FlightAware ADS-B
Sun 15:58:42 41.5610 -110.0060 87° East 480 552 37,000  Level FlightAware ADS-B
Sun 15:59:18 41.5640 -109.9150 87° East 480 552 37,000  Level FlightAware ADS-B
Sun 15:59:55 41.5680 -109.8220 87° East 480 552 37,000  Level FlightAware ADS-B
Sun 16:00:31 41.5720 -109.7310 87° East 480 552 37,000  Level FlightAware ADS-B
Sun 16:01:07 41.5750 -109.6400 87° East 480 552 37,000  Level FlightAware ADS-B
Sun 16:01:43 41.5790 -109.5500 87° East 480 552 37,000  Level FlightAware ADS-B
Sun 16:02:19 41.5820 -109.4590 87° East 480 552 37,000  Level FlightAware ADS-B
Sun 16:02:57 41.5860 -109.3630 87° East 480 552 37,000  Level FlightAware ADS-B
Sun 16:03:33 41.5890 -109.2720 87° East 480 552 37,000  Level FlightAware ADS-B
Sun 16:04:09 41.5930 -109.1820 87° East 480 552 37,000  Level FlightAware ADS-B
Sun 16:04:46 41.5970 -109.0880 87° East 480 552 37,000  Level FlightAware ADS-B
Sun 16:05:20 41.6000 -109.0030 87° East 480 552 37,000  Level FlightAware ADS-B
Sun 16:05:58 41.6040 -108.9070 87° East 480 552 37,000  Level FlightAware ADS-B
Sun 16:06:33 41.6070 -108.8190 87° East 480 552 37,000  Level FlightAware ADS-B
Sun 16:07:10 41.6110 -108.7250 87° East 480 552 37,000  Level FlightAware ADS-B
Sun 16:08:03 41.6431 -108.3289 87° East 482 555 37,000  Level Denver Center
Sun 16:09:05 41.6747 -108.1336 78° East 483 556 37,000  Level Denver Center
Sun 16:10:07 41.7086 -107.9658 75° East 487 560 37,000  Level Denver Center
Sun 16:11:09 41.7492 -107.7714 74° East 485 558 37,000  Level Denver Center
Sun 16:12:11 41.7844 -107.6050 74° East 486 559 37,000  Level Denver Center
Sun 16:17:51 41.9700 -106.5960 74° East 483 556 37,000  Level FlightAware ADS-B
Sun 16:18:32 41.9840 -106.4930 80° East 483 556 37,000  Level FlightAware ADS-B
Sun 16:19:01 41.9950 -106.3920 82° East 483 556 37,000  Level FlightAware ADS-B
Sun 16:19:39 42.0090 -106.2760 81° East 482 555 37,000  Level FlightAware ADS-B
Sun 16:20:17 42.0240 -106.1660 80° East 481 554 37,000  Level FlightAware ADS-B
Sun 16:20:49 42.0340 -106.0760 81° East 479 551 37,000  Level FlightAware ADS-B
Sun 16:21:25 42.0450 -105.9640 82° East 478 550 37,000  Level FlightAware ADS-B
Sun 16:22:01 42.0540 -105.8630 83° East 477 549 37,000  Level FlightAware ADS-B
Sun 16:22:40 42.0650 -105.7590 82° East 477 549 37,000  Level FlightAware ADS-B
Sun 16:23:32 42.0800 -105.6070 82° East 477 549 37,000  Level FlightAware ADS-B
Sun 16:24:09 42.0890 -105.5150 82° East 477 549 37,000  Level FlightAware ADS-B
Sun 16:24:40 42.1000 -105.3920 83° East 478 550 37,000  Level FlightAware ADS-B
Sun 16:25:16 42.1110 -105.2850 82° East 478 550 37,000  Level FlightAware ADS-B
Sun 16:25:46 42.1190 -105.1960 83° East 479 551 37,000  Level FlightAware ADS-B
Sun 16:26:25 42.1290 -105.0920 83° East 479 551 37,000  Level FlightAware ADS-B
Sun 16:27:01 42.1390 -105.0020 81° East 479 551 37,000  Level FlightAware ADS-B
Sun 16:27:38 42.1480 -104.9090 83° East 479 551 37,000  Level FlightAware ADS-B
Sun 16:28:14 42.1580 -104.8180 82° East 479 551 37,000  Level FlightAware ADS-B
Sun 16:28:51 42.1680 -104.7250 82° East 479 551 37,000  Level FlightAware ADS-B
Sun 16:29:22 42.1760 -104.5600 86° East 483 556 37,000  Level FlightAware ADS-B
Sun 16:30:02 42.1860 -104.4590 82° East 483 556 37,000  Level FlightAware ADS-B
Sun 16:30:38 42.1940 -104.3670 83° East 483 556 37,000  Level FlightAware ADS-B
Sun 16:31:14 42.2050 -104.2320 84° East 485 558 37,000  Level FlightAware ADS-B
Sun 16:31:50 42.2140 -104.1400 82° East 485 558 37,000  Level FlightAware ADS-B
Sun 16:32:25 42.2220 -104.0510 83° East 485 558 37,000  Level FlightAware ADS-B
Sun 16:33:01 42.2300 -103.9590 83° East 485 558 37,000  Level FlightAware ADS-B
Sun 16:33:39 42.2390 -103.8610 83° East 485 558 37,000  Level FlightAware ADS-B
Sun 16:34:16 42.2470 -103.7670 83° East 485 558 37,000  Level FlightAware ADS-B
Sun 16:34:52 42.2560 -103.6750 82° East 485 558 37,000  Level FlightAware ADS-B
Sun 16:35:28 42.2670 -103.4830 86° East 479 551 37,000  Level FlightAware ADS-B
Sun 16:36:12 42.2770 -103.3480 84° East 477 549 37,000  Level FlightAware ADS-B
Sun 16:36:48 42.2850 -103.2570 83° East 477 549 37,000  Level FlightAware ADS-B
Sun 16:37:27 42.2940 -103.1140 85° East 470 541 37,000  Level FlightAware ADS-B
Sun 16:37:56 42.2990 -103.0430 85° East 470 541 37,000  Level FlightAware ADS-B
Sun 16:38:32 42.3060 -102.9530 84° East 470 541 37,000  Level FlightAware ADS-B
Sun 16:39:08 42.3130 -102.8640 84° East 470 541 37,000  Level FlightAware ADS-B
Sun 16:39:44 42.3200 -102.7740 84° East 470 541 37,000  Level FlightAware ADS-B
Sun 16:40:20 42.3270 -102.6850 84° East 470 541 37,000  Level FlightAware ADS-B
Sun 16:40:57 42.3340 -102.5930 84° East 470 541 37,000  Level FlightAware ADS-B
Sun 16:41:33 42.3410 -102.5030 84° East 470 541 37,000  Level FlightAware ADS-B
Sun 16:42:09 42.3480 -102.4140 84° East 470 541 37,000  Level FlightAware ADS-B
Sun 16:42:45 42.3550 -102.3240 84° East 470 541 37,000  Level FlightAware ADS-B
Sun 16:43:22 42.3620 -102.2320 84° East 470 541 37,000  Level FlightAware ADS-B
Sun 16:44:00 42.3700 -102.1380 83° East 470 541 37,000  Level FlightAware ADS-B
Sun 16:44:36 42.3770 -102.0480 84° East 470 541 37,000  Level FlightAware ADS-B
Sun 16:45:12 42.3840 -101.9590 84° East 470 541 37,000  Level FlightAware ADS-B
Sun 16:45:48 42.3910 -101.8690 84° East 470 541 37,000  Level FlightAware ADS-B
Sun 16:46:24 42.3970 -101.7790 85° East 470 541 37,000  Level FlightAware ADS-B
Sun 16:47:00 42.4040 -101.6900 84° East 470 541 37,000  Level FlightAware ADS-B
Sun 16:47:33 42.4150 -101.3242 84° East 483 556 37,000  Level Denver Center
Sun 16:48:35 42.4239 -101.1497 86° East 484 557 37,000  Level Denver Center
Sun 16:49:38 42.4344 -100.9753 85° East 484 557 37,000  Level Denver Center
Sun 16:55:20 42.4887 -99.8996 85° East 483 556 37,000  Level FlightAware ADS-B
Sun 16:55:50 42.4929 -99.8083 86° East 481 554 37,000  Level FlightAware ADS-B
Sun 16:56:21 42.4971 -99.7160 86° East 481 554 37,000  Level FlightAware ADS-B
Sun 16:56:51 42.5011 -99.6252 87° East 480 552 37,000  Level FlightAware ADS-B
Sun 16:57:21 42.5050 -99.5351 87° East 478 550 37,000  Level FlightAware ADS-B
Sun 16:57:52 42.5089 -99.4453 87° East 477 549 37,000  Level FlightAware ADS-B
Sun 16:58:22 42.5126 -99.3552 87° East 477 549 37,000  Level FlightAware ADS-B
Sun 16:59:29 42.5208 -99.1542 87° East 477 549 37,000  Level FlightAware ADS-B
Sun 17:00:00 42.5244 -99.0638 87° East 477 549 37,000  Level FlightAware ADS-B
Sun 17:00:30 42.5278 -98.9742 87° East 466 536 37,000  Level FlightAware ADS-B
Sun 17:01:01 42.5311 -98.8871 87° East 456 525 37,000  Level FlightAware ADS-B
Sun 17:01:31 42.5344 -98.8006 87° East 450 518 37,000  Level FlightAware ADS-B
Sun 17:02:32 42.5405 -98.6314 87° East 448 516 37,000  Level FlightAware ADS-B
Sun 17:03:41 42.5472 -98.4378 87° East 445 512 37,000  Level FlightAware ADS-B
Sun 17:04:14 42.5501 -98.3475 87° East 446 513 37,000  Level FlightAware ADS-B
Sun 17:04:44 42.5529 -98.2627 87° East 447 514 37,000  Level FlightAware ADS-B
Sun 17:05:15 42.5556 -98.1775 88° East 447 514 37,000  Level FlightAware ADS-B
Sun 17:05:45 42.5582 -98.0917 88° East 447 514 37,000  Level FlightAware ADS-B
Sun 17:06:16 42.5608 -98.0073 88° East 447 514 37,000  Level FlightAware ADS-B
Sun 17:06:46 42.5632 -97.9226 88° East 447 514 37,000  Level FlightAware ADS-B
Sun 17:07:18 42.5658 -97.8343 88° East 447 514 37,000  Level FlightAware ADS-B
Sun 17:07:53 42.5685 -97.7349 88° East 447 514 37,000  Level FlightAware ADS-B
Sun 17:08:24 42.5709 -97.6489 88° East 447 514 37,000  Level FlightAware ADS-B
Sun 17:08:55 42.5732 -97.5627 88° East 446 513 37,000  Level FlightAware ADS-B
Sun 17:09:25 42.5753 -97.4769 88° East 447 514 37,000  Level FlightAware ADS-B
Sun 17:09:55 42.5774 -97.3932 88° East 446 513 37,000  Level FlightAware ADS-B
Sun 17:10:26 42.5794 -97.3077 88° East 446 513 37,000  Level FlightAware ADS-B
Sun 17:10:57 42.5815 -97.2226 88° East 445 512 37,000  Level FlightAware ADS-B
Sun 17:11:27 42.5834 -97.1380 88° East 445 512 37,000  Level FlightAware ADS-B
Sun 17:11:57 42.5852 -97.0544 88° East 444 511 37,000  Level FlightAware ADS-B
Sun 17:12:29 42.5871 -96.9655 88° East 443 510 37,000  Level FlightAware ADS-B
Sun 17:13:14 42.5895 -96.8422 88° East 442 509 37,000  Level FlightAware ADS-B
Sun 17:13:44 42.5912 -96.7588 88° East 441 507 37,000  Level FlightAware ADS-B
Sun 17:14:14 42.5927 -96.6759 89° East 441 507 37,000  Level FlightAware ADS-B
Sun 17:14:46 42.5942 -96.5882 89° East 441 507 37,000  Level FlightAware ADS-B
Sun 17:15:18 42.5957 -96.5008 89° East 441 507 37,000  Level FlightAware ADS-B
Sun 17:15:48 42.5971 -96.4178 89° East 441 507 37,000  Level FlightAware ADS-B
Sun 17:16:18 42.5984 -96.3338 89° East 442 509 37,000  Level FlightAware ADS-B
Sun 17:16:50 42.5997 -96.2469 89° East 442 509 37,000  Level FlightAware ADS-B
Sun 17:17:24 42.6010 -96.1518 89° East 442 509 37,000  Level FlightAware ADS-B
Sun 17:17:59 42.6030 -96.0670 88° East 442 509 37,000  Level FlightAware ADS-B
Sun 17:18:12 42.6027 -96.0197 90° East 443 510 37,000  Level FlightAware ADS-B
Sun 17:18:42 42.6037 -95.9362 89° East 444 511 37,000  Level FlightAware ADS-B
Sun 17:19:23 42.6050 -95.8216 89° East 444 511 37,000  Level FlightAware ADS-B
Sun 17:19:53 42.6059 -95.7382 89° East 445 512 37,000  Level FlightAware ADS-B
Sun 17:20:23 42.6067 -95.6542 89° East 446 513 37,000  Level FlightAware ADS-B
Sun 17:20:54 42.6074 -95.5686 89° East 448 516 37,000  Level FlightAware ADS-B
Sun 17:21:24 42.6081 -95.4837 89° East 448 516 37,000  Level FlightAware ADS-B
Sun 17:21:55 42.6088 -95.3969 89° East 449 517 37,000  Level FlightAware ADS-B
Sun 17:22:25 42.6093 -95.3122 90° East 450 518 37,000  Level FlightAware ADS-B
Sun 17:22:56 42.6098 -95.2262 90° East 450 518 37,000  Level FlightAware ADS-B
Sun 17:23:26 42.6102 -95.1415 90° East 450 518 37,000  Level FlightAware ADS-B
Sun 17:23:57 42.6106 -95.0542 90° East 450 518 37,000  Level FlightAware ADS-B
Sun 17:24:27 42.6109 -94.9686 90° East 450 518 37,000  Level FlightAware ADS-B
Sun 17:25:01 42.6112 -94.8745 90° East 450 518 37,000  Level FlightAware ADS-B
Sun 17:25:31 42.6114 -94.7900 90° East 449 517 37,000  Level FlightAware ADS-B
Sun 17:26:01 42.6115 -94.7047 90° East 448 516 37,000  Level FlightAware ADS-B
Sun 17:26:32 42.6115 -94.6187 90° East 448 516 37,000  Level FlightAware ADS-B
Sun 17:27:03 42.6115 -94.5317 90° East 447 514 37,000  Level FlightAware ADS-B
Sun 17:27:33 42.6115 -94.4463 90° East 445 512 37,000  Level FlightAware ADS-B
Sun 17:28:04 42.6113 -94.3622 90° East 444 511 37,000  Level FlightAware ADS-B
Sun 17:28:34 42.6128 -94.2783 89° East 443 510 37,000  Level FlightAware ADS-B
Sun 17:29:05 42.6132 -94.1934 90° East 440 506 37,000  Level FlightAware ADS-B
Sun 17:29:37 42.6126 -94.1059 91° East 439 505 37,000  Level FlightAware ADS-B
Sun 17:30:12 42.6128 -94.0087 90° East 439 505 37,000  Level FlightAware ADS-B
Sun 17:30:45 42.6136 -93.9184 89° East 439 505 37,000  Level FlightAware ADS-B
Sun 17:31:15 42.6143 -93.8352 89° East 439 505 37,000  Level FlightAware ADS-B
Sun 17:31:48 42.6150 -93.7453 89° East 439 505 37,000  Level FlightAware ADS-B
Sun 17:32:52 42.6160 -93.5760 89° East 443 510 37,000  Level FlightAware ADS-B
Sun 17:33:28 42.6160 -93.4700 90° East 447 514 37,000  Level FlightAware ADS-B
Sun 17:34:00 42.6170 -93.3790 89° East 449 517 37,000  Level FlightAware ADS-B
Sun 17:34:36 42.6170 -93.2790 90° East 450 518 37,000  Level FlightAware ADS-B
Sun 17:35:06 42.6170 -93.1990 90° East 452 520 37,000  Level FlightAware ADS-B
Sun 17:35:48 42.6170 -93.0730 90° East 455 524 37,000  Level FlightAware ADS-B
Sun 17:36:18 42.6170 -92.9890 90° East 464 534 37,000  Level FlightAware ADS-B
Sun 17:36:54 42.6160 -92.8870 91° East 475 547 37,000  Level FlightAware ADS-B
Sun 17:37:30 42.6160 -92.7780 90° East 480 552 37,000  Level FlightAware ADS-B
Sun 17:38:09 42.6160 -92.6590 90° East 484 557 37,000  Level FlightAware ADS-B
Sun 17:38:40 42.6150 -92.5700 91° East 484 557 37,000  Level FlightAware ADS-B
Sun 17:39:16 42.6140 -92.4560 91° East 483 556 37,000  Level FlightAware ADS-B
Sun 17:39:53 42.6140 -92.3480 90° East 481 554 37,000  Level FlightAware ADS-B
Sun 17:40:28 42.6130 -92.2430 91° East 480 552 37,000  Level FlightAware ADS-B
Sun 17:41:04 42.6120 -92.1300 91° East 479 551 37,000  Level FlightAware ADS-B
Sun 17:41:36 42.6110 -92.0360 91° East 478 550 37,000  Level FlightAware ADS-B
Sun 17:42:13 42.6100 -91.9290 91° East 478 550 37,000  Level FlightAware ADS-B
Sun 17:42:48 42.6090 -91.8200 91° East 477 549 37,000  Level FlightAware ADS-B
Sun 17:43:20 42.6080 -91.7260 91° East 476 548 37,000  Level FlightAware ADS-B
Sun 17:43:56 42.6060 -91.6140 91° East 475 547 37,000  Level FlightAware ADS-B
Sun 17:44:34 42.6050 -91.5040 91° East 475 547 37,000  Level FlightAware ADS-B
Sun 17:45:06 42.6030 -91.4120 92° East 475 547 37,000  Level FlightAware ADS-B
Sun 17:45:40 42.6020 -91.3090 91° East 475 547 37,000  Level FlightAware ADS-B
Sun 17:46:18 42.6000 -91.1980 91° East 475 547 37,000 257 Level FlightAware ADS-B
Sun 17:46:50 42.5980 -91.1020 92° East 477 549 37,300 971 Climbing FlightAware ADS-B
Sun 17:47:26 42.5960 -90.9900 91° East 473 544 38,100 1,167 Climbing FlightAware ADS-B
Sun 17:48:02 42.5940 -90.8870 91° East 470 541 38,700 750 Climbing FlightAware ADS-B
Sun 17:48:38 42.5920 -90.7820 91° East 472 543 39,000 265 Climbing FlightAware ADS-B
Sun 17:49:10 42.5900 -90.6860 92° East 475 547 39,000  Level FlightAware ADS-B
Sun 17:49:48 42.5870 -90.5720 92° East 480 552 39,000  Level FlightAware ADS-B
Sun 17:50:20 42.5850 -90.4710 92° East 483 556 39,000  Level FlightAware ADS-B
Sun 17:50:56 42.5820 -90.3660 92° East 483 556 39,000  Level FlightAware ADS-B
Sun 17:51:30 42.5800 -90.2630 91° East 481 554 39,000  Level FlightAware ADS-B
Sun 17:52:08 42.5770 -90.1490 92° East 480 552 39,000  Level FlightAware ADS-B
Sun 17:52:40 42.5740 -90.0550 92° East 478 550 39,000  Level FlightAware ADS-B
Sun 17:53:16 42.5710 -89.9460 92° East 476 548 39,000  Level FlightAware ADS-B
Sun 17:53:52 42.5680 -89.8440 92° East 474 545 39,000  Level FlightAware ADS-B
Sun 17:54:27 42.5650 -89.7410 92° East 472 543 39,000  Level FlightAware ADS-B
Sun 17:55:01 42.5620 -89.6370 92° East 470 541 39,000  Level FlightAware ADS-B
Sun 17:55:35 42.5590 -89.5380 92° East 466 536 39,000  Level FlightAware ADS-B
Sun 17:56:11 42.5560 -89.4370 92° East 463 533 39,000  Level FlightAware ADS-B
Sun 17:56:49 42.5520 -89.3220 93° East 460 529 39,000  Level FlightAware ADS-B
Sun 17:57:21 42.5490 -89.2310 93° East 458 527 39,000  Level FlightAware ADS-B
Sun 17:57:53 42.5460 -89.1380 92° East 457 526 39,000  Level FlightAware ADS-B
Sun 17:58:31 42.5420 -89.0340 93° East 457 526 39,000  Level FlightAware ADS-B
Sun 17:59:07 42.5380 -88.9310 93° East 456 525 39,000  Level FlightAware ADS-B
Sun 17:59:41 42.5350 -88.8330 92° East 456 525 39,000  Level FlightAware ADS-B
Sun 18:00:17 42.5310 -88.7260 93° East 457 526 39,000  Level FlightAware ADS-B
Sun 18:00:53 42.5270 -88.6270 93° East 458 527 39,000  Level FlightAware ADS-B
Sun 18:01:25 42.5230 -88.5350 93° East 460 529 39,000  Level FlightAware ADS-B
Sun 18:02:02 42.5190 -88.4270 93° East 464 534 39,000  Level FlightAware ADS-B
Sun 18:02:35 42.5150 -88.3320 93° East 467 537 39,000  Level FlightAware ADS-B
Sun 18:03:11 42.5100 -88.2250 94° East 469 540 39,000  Level FlightAware ADS-B
Sun 18:03:43 42.5060 -88.1310 93° East 470 541 39,000  Level FlightAware ADS-B
Sun 18:04:23 42.5010 -88.0150 93° East 471 542 39,000  Level FlightAware ADS-B
Sun 18:04:55 42.5000 -87.9200 91° East 470 541 39,000  Level FlightAware ADS-B
Sun 18:05:32 42.5000 -87.8130 90° East 472 543 39,000  Level FlightAware ADS-B
Sun 18:06:08 42.5000 -87.7090 90° East 472 543 39,000  Level FlightAware ADS-B
Sun 18:06:44 42.4990 -87.6010 91° East 472 543 39,000  Level FlightAware ADS-B
Sun 18:07:14 42.4990 -87.5120 90° East 472 543 39,000  Level FlightAware ADS-B
Sun 18:07:52 42.4990 -87.3950 90° East 472 543 39,000  Level FlightAware ADS-B
Sun 18:08:28 42.4980 -87.2930 91° East 472 543 39,000  Level FlightAware ADS-B
Sun 18:09:04 42.4970 -87.1870 91° East 473 544 39,000  Level FlightAware ADS-B
Sun 18:09:36 42.4970 -87.0920 90° East 474 545 39,000  Level FlightAware ADS-B
Sun 18:10:11 42.4960 -86.9880 91° East 474 545 39,000  Level FlightAware ADS-B
Sun 18:10:48 42.4950 -86.8800 91° East 476 548 39,000  Level FlightAware ADS-B
Sun 18:11:15 42.4940 -86.8310 92° East 476 548 39,000  Level FlightAware ADS-B
Sun 18:11:54 42.4930 -86.6810 90° East 476 548 39,000  Level FlightAware ADS-B
Sun 18:12:30 42.4920 -86.5730 91° East 476 548 39,000  Level FlightAware ADS-B
Sun 18:13:02 42.4900 -86.4760 92° East 476 548 39,000  Level FlightAware ADS-B
Sun 18:13:34 42.4890 -86.3840 91° East 475 547 39,000  Level FlightAware ADS-B
Sun 18:14:14 42.4870 -86.2650 91° East 476 548 39,000  Level FlightAware ADS-B
Sun 18:14:46 42.4860 -86.1690 91° East 475 547 39,000  Level FlightAware ADS-B
Sun 18:15:23 42.4840 -86.0620 91° East 474 545 39,000  Level FlightAware ADS-B
Sun 18:15:59 42.4820 -85.9560 91° East 474 545 39,000  Level FlightAware ADS-B
Sun 18:16:47 42.4800 -85.8130 91° East 473 544 39,000  Level FlightAware ADS-B
Sun 18:17:21 42.4780 -85.7120 92° East 474 545 39,000  Level FlightAware ADS-B
Sun 18:17:55 42.4760 -85.6110 92° East 474 545 39,000  Level FlightAware ADS-B
Sun 18:18:31 42.4740 -85.5050 91° East 474 545 39,000  Level FlightAware ADS-B
Sun 18:19:05 42.4710 -85.4030 92° East 474 545 39,000  Level FlightAware ADS-B
Sun 18:19:41 42.4690 -85.3000 91° East 474 545 39,000  Level FlightAware ADS-B
Sun 18:20:15 42.4670 -85.1970 91° East 474 545 39,000  Level FlightAware ADS-B
Sun 18:20:49 42.4640 -85.0990 92° East 474 545 39,000  Level FlightAware ADS-B
Sun 18:21:27 42.4610 -84.9840 92° East 475 547 39,000  Level FlightAware ADS-B
Sun 18:21:59 42.4590 -84.8860 92° East 475 547 39,000  Level FlightAware ADS-B
Sun 18:22:35 42.4560 -84.7850 92° East 475 547 39,000  Level FlightAware ADS-B
Sun 18:23:12 42.4530 -84.6730 92° East 475 547 39,000  Level FlightAware ADS-B
Sun 18:23:47 42.4500 -84.5680 92° East 474 545 39,000  Level FlightAware ADS-B
Sun 18:24:19 42.4470 -84.4750 92° East 474 545 39,000  Level FlightAware ADS-B
Sun 18:24:57 42.4430 -84.3620 93° East 474 545 39,000  Level FlightAware ADS-B
Sun 18:25:31 42.4400 -84.2630 92° East 474 545 39,000  Level FlightAware ADS-B
Sun 18:26:08 42.4360 -84.1500 93° East 474 545 39,000  Level FlightAware ADS-B
Sun 18:26:40 42.4330 -84.0550 92° East 474 545 39,000  Level FlightAware ADS-B
Sun 18:27:18 42.4290 -83.9410 93° East 474 545 39,000  Level FlightAware ADS-B
Sun 18:27:52 42.4260 -83.8420 92° East 474 545 39,000  Level FlightAware ADS-B
Sun 18:28:28 42.4220 -83.7340 93° East 474 545 39,000  Level FlightAware ADS-B
Sun 18:29:04 42.4180 -83.6280 93° East 474 545 39,000  Level FlightAware ADS-B
Sun 18:29:36 42.4140 -83.5340 93° East 474 545 39,000  Level FlightAware ADS-B
Sun 18:30:10 42.4100 -83.4350 93° East 474 545 39,000  Level FlightAware ADS-B
Sun 18:30:46 42.4060 -83.3280 93° East 474 545 39,000  Level FlightAware ADS-B
Sun 18:31:23 42.4020 -83.2200 93° East 472 543 39,000  Level FlightAware ADS-B
Sun 18:31:56 42.3980 -83.1240 93° East 469 540 39,000  Level FlightAware ADS-B
Sun 18:32:32 42.3930 -83.0160 94° East 466 536 39,000  Level FlightAware ADS-B
Sun 18:33:08 42.3880 -82.9130 94° East 463 533 39,000  Level FlightAware ADS-B
Sun 18:33:44 42.3840 -82.8120 93° East 461 531 39,000  Level FlightAware ADS-B
Sun 18:34:18 42.3790 -82.7100 94° East 458 527 39,000  Level FlightAware ADS-B
Sun 18:34:54 42.3750 -82.6090 93° East 455 524 39,000  Level FlightAware ADS-B
Sun 18:35:26 42.3720 -82.5200 93° East 454 522 39,000  Level FlightAware ADS-B
Sun 18:36:02 42.3680 -82.4190 93° East 454 522 39,000  Level FlightAware ADS-B
Sun 18:36:38 42.3640 -82.3140 93° East 455 524 39,000  Level FlightAware ADS-B
Sun 18:37:10 42.3600 -82.2260 93° East 456 525 39,000  Level FlightAware ADS-B
Sun 18:37:41 42.3570 -82.1410 93° East 456 525 39,000  Level FlightAware ADS-B
Sun 18:38:23 42.3520 -82.0270 93° East 458 527 39,000  Level FlightAware ADS-B
Sun 18:39:03 42.3460 -81.9080 94° East 459 528 39,000  Level FlightAware ADS-B
Sun 18:39:37 42.3420 -81.8100 93° East 459 528 39,000  Level FlightAware ADS-B
Sun 18:40:12 42.3370 -81.7120 94° East 461 531 39,000  Level FlightAware ADS-B
Sun 18:40:47 42.3330 -81.6080 93° East 463 533 39,000  Level FlightAware ADS-B
Sun 18:41:33 42.3270 -81.4840 94° East 464 534 39,000  Level FlightAware ADS-B
Sun 18:42:13 42.3210 -81.3590 94° East 466 536 39,000  Level FlightAware ADS-B
Sun 18:42:48 42.3160 -81.2630 94° East 468 539 39,000  Level FlightAware ADS-B
Sun 18:43:18 42.3110 -81.1720 94° East 470 541 39,000  Level FlightAware ADS-B
Sun 18:44:03 42.3050 -81.0410 93° East 472 543 39,000  Level FlightAware ADS-B
Sun 18:44:48 42.2980 -80.9100 94° East 474 545 39,000  Level FlightAware ADS-B
Sun 18:45:18 42.2930 -80.8180 94° East 475 547 39,000  Level FlightAware ADS-B
Sun 18:45:53 42.2870 -80.7150 94° East 477 549 39,000  Level FlightAware ADS-B
Sun 18:46:33 42.2810 -80.5990 94° East 478 550 39,000  Level FlightAware ADS-B
Sun 18:47:08 42.2750 -80.4970 95° East 478 550 39,000  Level FlightAware ADS-B
Sun 18:47:38 42.2700 -80.4070 94° East 479 551 39,000  Level FlightAware ADS-B
Sun 18:48:18 42.2630 -80.2850 94° East 477 549 39,000  Level FlightAware ADS-B
Sun 18:48:48 42.2580 -80.1950 94° East 475 547 39,000  Level FlightAware ADS-B
Sun 18:49:23 42.2510 -80.0930 95° East 472 543 39,000  Level FlightAware ADS-B
Sun 18:49:58 42.2450 -79.9900 94° East 473 544 39,000  Level FlightAware ADS-B
Sun 18:50:38 42.2380 -79.8730 95° East 472 543 39,000  Level FlightAware ADS-B
Sun 18:51:13 42.2320 -79.7730 95° East 471 542 39,000  Level FlightAware ADS-B
Sun 18:51:43 42.2270 -79.6940 95° East 470 541 39,000  Level FlightAware ADS-B
Sun 18:52:18 42.2190 -79.5800 95° East 469 540 39,000  Level FlightAware ADS-B
Sun 18:52:58 42.2120 -79.4680 95° East 469 540 39,000  Level FlightAware ADS-B
Sun 18:53:28 42.2010 -79.3760 99° East 479 551 39,000  Level FlightAware ADS-B
Sun 18:54:08 42.1590 -79.2700 118° Southeast 503 579 39,000  Level FlightAware ADS-B
Sun 18:54:38 42.1110 -79.2020 134° Southeast 510 587 39,000  Level FlightAware ADS-B
Sun 18:55:13 42.0530 -79.1210 134° Southeast 509 586 39,000  Level FlightAware ADS-B
Sun 18:55:48 41.9950 -79.0410 134° Southeast 507 583 39,000  Level FlightAware ADS-B
Sun 18:56:23 41.9450 -78.9720 134° Southeast 504 580 39,000  Level FlightAware ADS-B
Sun 18:57:03 41.8770 -78.8780 134° Southeast 501 577 39,000  Level FlightAware ADS-B
Sun 18:57:34 41.8290 -78.8110 134° Southeast 500 575 39,000  Level FlightAware ADS-B
Sun 18:58:08 41.7740 -78.7350 134° Southeast 499 574 39,000  Level FlightAware ADS-B
Sun 18:58:43 41.7140 -78.6520 134° Southeast 497 572 39,000  Level FlightAware ADS-B
Sun 18:59:23 41.6660 -78.5480 122° Southeast 481 554 39,000  Level FlightAware ADS-B
Sun 18:59:57 41.6530 -78.4490 100° East 462 532 39,000  Level FlightAware ADS-B
Sun 19:00:33 41.6630 -78.3520 82° East 444 511 39,000  Level FlightAware ADS-B
Sun 19:01:05 41.6770 -78.2650 78° East 445 512 39,000  Level FlightAware ADS-B
Sun 19:01:43 41.6920 -78.1660 78° East 451 519 39,000  Level FlightAware ADS-B
Sun 19:02:31 41.7130 -78.0300 78° East 456 525 39,000  Level FlightAware ADS-B
Sun 19:03:05 41.7280 -77.9370 78° East 456 525 39,000  Level FlightAware ADS-B
Sun 19:03:41 41.7430 -77.8380 78° East 456 525 39,000  Level FlightAware ADS-B
Sun 19:04:13 41.7560 -77.7500 79° East 456 525 39,000  Level FlightAware ADS-B
Sun 19:04:51 41.7720 -77.6460 78° East 456 525 39,000  Level FlightAware ADS-B
Sun 19:05:21 41.7790 -77.5680 83° East 467 537 39,000  Level FlightAware ADS-B
Sun 19:05:53 41.7640 -77.4660 101° East 484 557 39,000  Level FlightAware ADS-B
Sun 19:06:28 41.7380 -77.3680 110° East 488 562 39,000  Level FlightAware ADS-B
Sun 19:07:12 41.7040 -77.2450 110° East 488 562 39,000  Level FlightAware ADS-B
Sun 19:07:45 41.6790 -77.1520 110° East 486 559 39,000  Level FlightAware ADS-B
Sun 19:08:20 41.6520 -77.0560 111° Southeast 484 557 39,000  Level FlightAware ADS-B
Sun 19:08:54 41.6260 -76.9560 109° East 483 556 39,000  Level FlightAware ADS-B
Sun 19:09:30 41.5990 -76.8570 110° East 481 554 39,000  Level FlightAware ADS-B
Sun 19:10:04 41.5720 -76.7600 110° East 481 554 39,000  Level FlightAware ADS-B
Sun 19:10:39 41.5470 -76.6670 110° East 480 552 39,000  Level FlightAware ADS-B
Sun 19:11:17 41.5170 -76.5590 110° East 478 550 39,000 -85 Level FlightAware ADS-B
Sun 19:11:50 41.4920 -76.4680 110° East 478 550 38,900 -794 Descending FlightAware ADS-B
Sun 19:12:25 41.4660 -76.3730 110° East 482 555 38,100 -1,500 Descending FlightAware ADS-B
Sun 19:13:02 41.4370 -76.2720 111° Southeast 489 563 37,100 -1,479 Descending FlightAware ADS-B
Sun 19:13:38 41.4070 -76.1640 110° East 491 565 36,300 -1,324 Descending FlightAware ADS-B
Sun 19:14:10 41.3820 -76.0750 110° East 491 565 35,600 -2,000 Descending FlightAware ADS-B
Sun 19:14:44 41.3570 -75.9840 110° East 496 571 34,100 -2,833 Descending FlightAware ADS-B
Sun 19:15:22 41.3250 -75.8740 111° Southeast 501 577 32,200 -3,182 Descending FlightAware ADS-B
Sun 19:15:50 41.3010 -75.7890 111° Southeast 506 582 30,600 -3,395 Descending FlightAware ADS-B
Sun 19:16:38 41.2590 -75.6490 112° Southeast 512 589 27,900 -3,036 Descending FlightAware ADS-B
Sun 19:17:13 41.2270 -75.5510 113° Southeast 506 582 26,400 -2,522 Descending FlightAware ADS-B
Sun 19:17:47 41.1950 -75.4560 114° Southeast 498 573 25,000 -2,486 Descending FlightAware ADS-B
Sun 19:18:23 41.1630 -75.3590 114° Southeast 491 565 23,500 -1,714 Descending FlightAware ADS-B
Sun 19:18:57 41.1300 -75.2620 114° Southeast 488 562 23,000 -455 Descending FlightAware ADS-B
Sun 19:19:29 41.1010 -75.1770 114° Southeast 484 557 23,000  Level FlightAware ADS-B
Sun 19:20:07 41.0660 -75.0730 114° Southeast 482 555 23,000 -243 Level FlightAware ADS-B
Sun 19:20:43 41.0320 -74.9740 114° Southeast 479 551 22,700 -750 Descending FlightAware ADS-B
Sun 19:21:19 41.0030 -74.8830 113° Southeast 463 533 22,100 -1,241 Descending FlightAware ADS-B
Sun 19:21:41 40.9909 -74.8184 104° East 454 522 21,500 -1,333 Descending FlightAware ADS-B
Sun 19:22:22 40.9786 -74.7157 99° East 419 482 20,700 -1,083 Descending FlightAware ADS-B
Sun 19:22:53 40.9708 -74.6403 98° East 386 444 20,200 -824 Descending FlightAware ADS-B
Sun 19:23:13 40.9665 -74.5949 97° East 375 432 20,000 -152 Descending FlightAware ADS-B
Sun 19:24:12 40.9750 -74.4650 85° East 371 427 20,000  Level FlightAware ADS-B
Sun 19:24:24 40.9773 -74.4352 84° East 372 428 20,000 -261 Level FlightAware ADS-B
Sun 19:24:35 40.9790 -74.4091 85° East 373 429 19,900 -545 Descending FlightAware ADS-B
Sun 19:24:46 40.9774 -74.3840 95° East 376 433 19,800 -632 Descending FlightAware ADS-B
Sun 19:24:54 40.9739 -74.3673 106° East 382 440 19,700 -947 Descending FlightAware ADS-B
Sun 19:25:24 40.9550 -74.3007 111° Southeast 383 441 19,200 -646 Descending FlightAware ADS-B
Sun 19:25:59 40.9348 -74.2216 109° East 387 445 19,000 -167 Descending FlightAware ADS-B
Sun 19:26:36 40.9137 -74.1405 109° East 383 441 19,000  Level FlightAware ADS-B
Sun 19:26:46 40.9058 -74.1194 116° Southeast 384 442 19,000 -750 Level FlightAware ADS-B
Sun 19:27:16 40.8783 -74.0594 121° Southeast 382 440 18,500 -1,125 Descending FlightAware ADS-B
Sun 19:27:50 40.8455 -73.9933 123° Southeast 376 433 17,800 -1,360 Descending FlightAware ADS-B
Sun 19:28:31 40.8080 -73.9180 123° Southeast 367 422 16,800 -1,481 Descending FlightAware ADS-B
Sun 19:29:07 40.7750 -73.8500 123° Southeast 363 418 15,900 -1,467 Descending FlightAware ADS-B
Sun 19:29:16 40.7665 -73.8336 124° Southeast 362 417 15,700 -1,941 Descending FlightAware ADS-B
Sun 19:30:15 40.6950 -73.7540 140° Southeast 350 403 13,700 -2,084 Descending FlightAware ADS-B
Sun 19:30:51 40.6480 -73.7110 145° Southeast 341 392 12,400 -2,294 Descending FlightAware ADS-B
Sun 19:31:23 40.6010 -73.6870 159° South 327 376 11,100 -2,344 Descending FlightAware ADS-B
Sun 19:31:55 40.5540 -73.6690 164° South 318 366 9,900 -2,182 Descending FlightAware ADS-B
Sun 19:32:07 40.5370 -73.6620 163° South 315 362 9,500 -2,167 Descending FlightAware ADS-B
Sun 19:32:31 40.5040 -73.6480 162° South 310 357 8,600 -2,045 Descending FlightAware ADS-B
Sun 19:32:51 40.4770 -73.6370 163° South 310 357 8,000 -1,650 Descending FlightAware ADS-B
Sun 19:33:11 40.4490 -73.6270 165° South 295 339 7,500 -1,333 Descending FlightAware ADS-B
Sun 19:33:27 40.4290 -73.6200 165° South 281 323 7,200 -833 Descending FlightAware ADS-B
Sun 19:33:47 40.4050 -73.6110 164° South 257 296 7,000 -878 Descending FlightAware ADS-B
Sun 19:34:08 40.3820 -73.6030 165° South 246 283 6,600 -1,429 Descending FlightAware ADS-B
Sun 19:34:29 40.3590 -73.5940 163° South 245 282 6,000 -1,463 Descending FlightAware ADS-B
Sun 19:34:49 40.3370 -73.5860 165° South 248 285 5,600 -1,077 Descending FlightAware ADS-B
Sun 19:35:08 40.3160 -73.5810 170° South 246 283 5,300 -1,077 Descending FlightAware ADS-B
Sun 19:35:28 40.2960 -73.5920 203° Southwest 241 277 4,900 -1,125 Descending FlightAware ADS-B
Sun 19:35:40 40.2880 -73.6060 233° Southwest 235 270 4,700 -1,091 Descending FlightAware ADS-B
Sun 19:35:50 40.2860 -73.6220 261° West 229 264 4,500 -882 Descending FlightAware ADS-B
Sun 19:36:14 40.2940 -73.6490 291° West 224 258 4,200 -947 Descending FlightAware ADS-B
Sun 19:36:28 40.3020 -73.6650 303° West 223 257 3,900 -1,000 Descending FlightAware ADS-B
Sun 19:36:50 40.3140 -73.6870 306° West 223 257 3,600 -1,059 Descending FlightAware ADS-B
Sun 19:37:02 40.3230 -73.7040 305° West 223 257 3,300 -1,125 Descending FlightAware ADS-B
Sun 19:37:22 40.3350 -73.7260 306° West 221 254 3,000 -667 Descending FlightAware ADS-B
Sun 19:37:38 40.3440 -73.7440 303° West 216 249 2,900  Descending FlightAware ADS-B
Sun 19:37:58 40.3540 -73.7630 305° West 197 227 3,000 167 Climbing FlightAware ADS-B
Sun 19:38:14 40.3610 -73.7790 300° West 180 207 3,000  Level FlightAware ADS-B
Sun 19:38:34 40.3700 -73.7960 305° West 168 193 3,000  Level FlightAware ADS-B
Sun 19:38:50 40.3760 -73.8100 299° West 168 193 3,000  Level FlightAware ADS-B
Sun 19:39:11 40.3850 -73.8260 306° West 168 193 3,000  Level FlightAware ADS-B
Sun 19:39:29 40.3930 -73.8430 302° West 168 193 3,000  Level FlightAware ADS-B
Sun 19:39:42 40.3980 -73.8540 301° West 170 196 3,000  Level FlightAware ADS-B
Sun 19:40:04 40.4080 -73.8730 305° West 158 182 3,000  Level FlightAware ADS-B
Sun 19:40:24 40.4160 -73.8890 303° West 155 178 3,000  Level FlightAware ADS-B
Sun 19:40:30 40.4190 -73.8910 333° Northwest 153 176 3,000  Level FlightAware ADS-B
Sun 19:40:40 40.4270 -73.8940 344° North 153 176 3,000  Level FlightAware ADS-B
Sun 19:40:58 40.4400 -73.8940 360° North 156 180 3,000  Level FlightAware ADS-B
Sun 19:41:43 40.4690 -73.8900 North 155 178 3,000  Level FlightAware ADS-B
Sun 19:41:49 40.4740 -73.8870 25° Northeast 158 182 3,000  Level FlightAware ADS-B
Sun 19:42:08 40.4880 -73.8780 26° Northeast 157 181 3,000 -419 Level FlightAware ADS-B
Sun 19:42:32 40.5031 -73.8660 31° Northeast 157 181 2,700 -750 Descending FlightAware ADS-B
Sun 19:43:20 40.5310 -73.8440 31° Northeast 156 180 2,100 -783 Descending FlightAware ADS-B
Sun 19:43:41 40.5430 -73.8350 30° Northeast 150 173 1,800 -698 Descending FlightAware ADS-B
Sun 19:44:03 40.5560 -73.8240 33° Northeast 140 161 1,600 -649 Descending FlightAware ADS-B
Sun 19:44:18 40.5640 -73.8180 30° Northeast 132 152 1,400 -857 Descending FlightAware ADS-B
Sun 19:44:38 40.5750 -73.8090 32° Northeast 131 151 1,100 -706 Descending FlightAware ADS-B
Sun 19:44:52 40.5820 -73.8040 28° Northeast 133 153 1,000 -529 Descending FlightAware ADS-B
Sun 19:45:12 40.5920 -73.7960 31° Northeast 127 146 800 -727 Descending FlightAware ADS-B
Sun 19:45:25 40.6000 -73.7900 30° Northeast 124 143 600 -686 Descending FlightAware ADS-B
Sun 19:45:47 40.6110 -73.7820 29° Northeast 130 150 400 -682 Descending FlightAware ADS-B
Sun 19:46:09 40.6220 -73.7730 32° Northeast 128 147 100 -818 Descending FlightAware ADS-B
Sun 19:46:30 40.6320 -73.7650 31° Northeast 120 138 -286 Descending FlightAware ADS-B

Login

Don't have an account? Register now (free) for customized features, flight alerts, and more!